createdAt,value
2019-03-25T00:00:32.321Z,19.25
2019-03-25T00:01:41.621Z,19.25
2019-03-25T00:02:38.342Z,19.25
2019-03-25T00:03:35.053Z,19.25
2019-03-25T00:04:31.774Z,19.25
2019-03-25T00:05:28.480Z,19.25
2019-03-25T00:06:25.118Z,19.19
2019-03-25T00:07:21.808Z,19.25
2019-03-25T00:08:18.412Z,19.19
2019-03-25T00:09:15.016Z,19.19
2019-03-25T00:10:11.723Z,19.19
2019-03-25T00:11:08.416Z,19.19
2019-03-25T00:12:05.042Z,19.19
2019-03-25T00:13:01.754Z,19.19
2019-03-25T00:13:58.453Z,19.19
2019-03-25T00:14:55.161Z,19.19
2019-03-25T00:15:51.872Z,19.19
2019-03-25T00:16:48.588Z,19.19
2019-03-25T00:17:45.197Z,19.19
2019-03-25T00:18:41.904Z,19.19
2019-03-25T00:19:38.624Z,19.19
2019-03-25T00:20:35.320Z,19.19
2019-03-25T00:21:32.036Z,19.19
2019-03-25T00:22:28.768Z,19.19
2019-03-25T00:23:25.482Z,19.19
2019-03-25T00:24:22.188Z,19.19
2019-03-25T00:25:18.898Z,19.19
2019-03-25T00:26:15.610Z,19.19
2019-03-25T00:27:12.304Z,19.19
2019-03-25T00:28:09.031Z,19.19
2019-03-25T00:29:05.743Z,19.19
2019-03-25T00:30:02.460Z,19.12
2019-03-25T00:30:59.153Z,19.19
2019-03-25T00:31:55.760Z,19.12
2019-03-25T00:32:52.484Z,19.12
2019-03-25T00:33:49.187Z,19.12
2019-03-25T00:34:45.905Z,19.12
2019-03-25T00:35:42.612Z,19.12
2019-03-25T00:36:39.320Z,19.12
2019-03-25T00:37:36.016Z,19.12
2019-03-25T00:38:32.749Z,19.12
2019-03-25T00:39:29.445Z,19.12
2019-03-25T00:40:26.056Z,19.12
2019-03-25T00:41:22.752Z,19.12
2019-03-25T00:42:19.365Z,19.12
2019-03-25T00:43:16.076Z,19.12
2019-03-25T00:44:12.810Z,19.12
2019-03-25T00:45:09.521Z,19.12
2019-03-25T00:46:06.127Z,19.12
2019-03-25T00:47:02.860Z,19.12
2019-03-25T00:47:59.571Z,19.12
2019-03-25T00:48:56.302Z,19.12
2019-03-25T00:49:53.013Z,19.12
2019-03-25T00:50:49.714Z,19.12
2019-03-25T00:51:46.412Z,19.12
2019-03-25T00:52:43.122Z,19.12
2019-03-25T00:53:39.828Z,19.12
2019-03-25T00:54:36.535Z,19.12
2019-03-25T00:55:33.416Z,19.12
2019-03-25T00:56:30.132Z,19.12
2019-03-25T00:57:26.841Z,19.12
2019-03-25T00:58:23.545Z,19.12
2019-03-25T00:59:20.273Z,19.06
2019-03-25T01:00:16.982Z,19.06
2019-03-25T01:01:13.684Z,19.06
2019-03-25T01:02:10.385Z,19.06
2019-03-25T01:03:07.096Z,19.06
2019-03-25T01:04:04.023Z,19.06
2019-03-25T01:05:00.730Z,19.06
2019-03-25T01:05:57.436Z,19.06
2019-03-25T01:06:54.155Z,19.06
2019-03-25T01:07:50.865Z,19.06
2019-03-25T01:08:47.585Z,19.06
2019-03-25T01:09:44.286Z,19.06
2019-03-25T01:10:40.995Z,19.06
2019-03-25T01:11:48.400Z,19.06
2019-03-25T01:12:36.190Z,19.06
2019-03-25T01:13:32.903Z,19.06
2019-03-25T01:14:29.636Z,19.06
2019-03-25T01:15:26.339Z,19.06
2019-03-25T01:16:22.950Z,19.06
2019-03-25T01:17:19.645Z,19.06
2019-03-25T01:18:17.282Z,19.06
2019-03-25T01:19:14.207Z,19.06
2019-03-25T01:20:10.929Z,19.06
2019-03-25T01:21:07.602Z,19.06
2019-03-25T01:22:04.293Z,19.06
2019-03-25T01:23:00.908Z,19.06
2019-03-25T01:23:57.614Z,19.06
2019-03-25T01:25:01.818Z,19.06
2019-03-25T01:25:52.821Z,19.06
2019-03-25T01:26:49.581Z,19.00
2019-03-25T01:27:46.234Z,19.06
2019-03-25T01:28:42.928Z,19.00
2019-03-25T01:29:39.662Z,19.06
2019-03-25T01:30:36.362Z,19.00
2019-03-25T01:31:33.061Z,19.06
2019-03-25T01:32:29.765Z,19.00
2019-03-25T01:33:26.470Z,19.00
2019-03-25T01:34:23.177Z,19.00
2019-03-25T01:35:19.903Z,19.00
2019-03-25T01:36:16.604Z,19.00
2019-03-25T01:37:13.307Z,19.00
2019-03-25T01:38:10.009Z,19.00
2019-03-25T01:39:06.717Z,19.00
2019-03-25T01:40:03.448Z,19.00
2019-03-25T01:41:00.148Z,19.00
2019-03-25T01:41:56.844Z,19.00
2019-03-25T01:42:53.548Z,19.00
2019-03-25T01:43:50.264Z,19.00
2019-03-25T01:44:46.991Z,19.00
2019-03-25T01:45:43.732Z,19.00
2019-03-25T01:46:40.437Z,19.00
2019-03-25T01:47:37.145Z,19.00
2019-03-25T01:48:33.853Z,19.00
2019-03-25T01:49:30.557Z,19.00
2019-03-25T01:50:27.289Z,19.00
2019-03-25T01:51:23.985Z,19.00
2019-03-25T01:52:20.693Z,19.00
2019-03-25T01:53:17.393Z,19.00
2019-03-25T01:54:14.088Z,19.00
2019-03-25T01:55:13.727Z,19.00
2019-03-25T01:56:09.359Z,19.00
2019-03-25T01:57:06.041Z,19.00
2019-03-25T01:58:02.645Z,19.00
2019-03-25T01:58:59.355Z,19.00
2019-03-25T01:59:56.092Z,19.00
2019-03-25T02:00:52.779Z,19.00
2019-03-25T02:01:49.474Z,19.00
2019-03-25T02:02:46.168Z,19.00
2019-03-25T02:03:42.777Z,19.00
2019-03-25T02:04:39.481Z,19.00
2019-03-25T02:05:36.208Z,19.00
2019-03-25T02:06:32.905Z,19.00
2019-03-25T02:07:29.611Z,19.00
2019-03-25T02:08:26.312Z,19.00
2019-03-25T02:09:23.017Z,19.00
2019-03-25T02:10:19.732Z,18.94
2019-03-25T02:11:16.457Z,19.00
2019-03-25T02:12:13.155Z,18.94
2019-03-25T02:13:09.852Z,18.94
2019-03-25T02:14:06.550Z,18.94
2019-03-25T02:15:03.241Z,18.94
2019-03-25T02:15:59.841Z,18.94
2019-03-25T02:16:56.537Z,19.00
2019-03-25T02:17:53.237Z,18.94
2019-03-25T02:18:49.933Z,18.94
2019-03-25T02:19:46.637Z,18.94
2019-03-25T02:20:43.333Z,18.94
2019-03-25T02:21:40.069Z,18.94
2019-03-25T02:22:36.816Z,18.94
2019-03-25T02:23:33.584Z,18.94
2019-03-25T02:24:30.277Z,18.94
2019-03-25T02:25:26.990Z,18.94
2019-03-25T02:26:23.689Z,18.94
2019-03-25T02:27:20.418Z,18.94
2019-03-25T02:28:17.122Z,18.94
2019-03-25T02:29:13.825Z,18.94
2019-03-25T02:30:10.541Z,18.94
2019-03-25T02:31:07.250Z,18.94
2019-03-25T02:32:03.978Z,18.94
2019-03-25T02:33:00.676Z,18.94
2019-03-25T02:33:57.393Z,18.94
2019-03-25T02:34:54.085Z,18.94
2019-03-25T02:35:50.789Z,18.94
2019-03-25T02:36:47.520Z,18.94
2019-03-25T02:37:44.216Z,18.94
2019-03-25T02:38:40.917Z,18.94
2019-03-25T02:39:37.623Z,18.94
2019-03-25T02:40:34.351Z,18.94
2019-03-25T02:41:31.024Z,18.94
2019-03-25T02:42:27.772Z,18.94
2019-03-25T02:43:24.475Z,18.94
2019-03-25T02:44:21.185Z,18.94
2019-03-25T02:45:17.881Z,18.94
2019-03-25T02:46:14.578Z,18.94
2019-03-25T02:47:11.297Z,18.94
2019-03-25T02:48:07.909Z,18.94
2019-03-25T02:49:04.615Z,18.94
2019-03-25T02:50:01.351Z,18.94
2019-03-25T02:50:58.032Z,18.94
2019-03-25T02:51:54.717Z,18.94
2019-03-25T02:52:51.454Z,18.94
2019-03-25T02:53:48.153Z,18.94
2019-03-25T02:54:44.858Z,18.94
2019-03-25T02:55:42.606Z,18.94
2019-03-25T02:56:39.446Z,18.94
2019-03-25T02:57:36.171Z,18.94
2019-03-25T02:58:32.871Z,18.94
2019-03-25T02:59:29.570Z,18.94
2019-03-25T03:00:26.274Z,18.94
2019-03-25T03:01:22.974Z,18.87
2019-03-25T03:02:19.685Z,18.94
2019-03-25T03:03:16.419Z,18.87
2019-03-25T03:04:13.113Z,18.87
2019-03-25T03:05:09.815Z,18.94
2019-03-25T03:06:06.516Z,18.87
2019-03-25T03:07:03.207Z,18.87
2019-03-25T03:07:59.941Z,18.87
2019-03-25T03:08:56.651Z,18.87
2019-03-25T03:09:53.332Z,18.87
2019-03-25T03:10:49.968Z,18.87
2019-03-25T03:11:46.668Z,18.87
2019-03-25T03:12:43.369Z,18.87
2019-03-25T03:13:40.079Z,18.87
2019-03-25T03:14:36.777Z,18.87
2019-03-25T03:15:33.498Z,18.87
2019-03-25T03:16:30.182Z,18.87
2019-03-25T03:17:26.881Z,18.87
2019-03-25T03:18:23.605Z,18.87
2019-03-25T03:19:20.330Z,18.87
2019-03-25T03:20:17.026Z,18.87
2019-03-25T03:21:13.739Z,18.87
2019-03-25T03:22:10.436Z,18.87
2019-03-25T03:23:07.138Z,18.87
2019-03-25T03:24:03.841Z,18.87
2019-03-25T03:25:00.692Z,18.87
2019-03-25T03:25:58.340Z,18.87
2019-03-25T03:26:55.241Z,18.87
2019-03-25T03:27:51.959Z,18.87
2019-03-25T03:28:48.687Z,18.87
2019-03-25T03:29:45.387Z,18.87
2019-03-25T03:30:42.090Z,18.87
2019-03-25T03:31:38.801Z,18.87
2019-03-25T03:32:35.482Z,18.87
2019-03-25T03:33:32.186Z,18.87
2019-03-25T03:34:28.921Z,18.87
2019-03-25T03:35:25.622Z,18.87
2019-03-25T03:36:22.329Z,18.87
2019-03-25T03:37:19.034Z,18.87
2019-03-25T03:38:15.740Z,18.87
2019-03-25T03:39:12.437Z,18.87
2019-03-25T03:40:09.158Z,18.87
2019-03-25T03:41:05.917Z,18.87
2019-03-25T03:42:02.630Z,18.87
2019-03-25T03:42:59.334Z,18.87
2019-03-25T03:43:56.053Z,18.87
2019-03-25T03:44:52.753Z,18.87
2019-03-25T03:45:49.465Z,18.87
2019-03-25T03:46:46.166Z,18.87
2019-03-25T03:47:42.856Z,18.87
2019-03-25T03:48:39.566Z,18.81
2019-03-25T03:49:36.291Z,18.81
2019-03-25T03:50:32.997Z,18.87
2019-03-25T03:51:29.701Z,18.81
2019-03-25T03:52:26.406Z,18.81
2019-03-25T03:53:23.105Z,18.81
2019-03-25T03:54:19.860Z,18.81
2019-03-25T03:55:16.533Z,18.81
2019-03-25T03:56:14.379Z,18.81
2019-03-25T03:57:11.341Z,18.81
2019-03-25T03:58:08.054Z,18.81
2019-03-25T03:59:04.838Z,18.81
2019-03-25T04:00:01.481Z,18.81
2019-03-25T04:00:58.239Z,18.81
2019-03-25T04:01:54.869Z,18.81
2019-03-25T04:02:51.570Z,18.81
2019-03-25T04:03:48.282Z,18.81
2019-03-25T04:04:44.977Z,18.81
2019-03-25T04:05:41.718Z,18.81
2019-03-25T04:06:38.425Z,18.81
2019-03-25T04:07:35.113Z,18.81
2019-03-25T04:08:31.820Z,18.81
2019-03-25T04:09:28.510Z,18.81
2019-03-25T04:10:25.147Z,18.81
2019-03-25T04:11:21.847Z,18.81
2019-03-25T04:12:18.548Z,18.81
2019-03-25T04:13:15.241Z,18.81
2019-03-25T04:14:11.950Z,18.81
2019-03-25T04:15:08.659Z,18.81
2019-03-25T04:16:05.378Z,18.81
2019-03-25T04:17:02.083Z,18.81
2019-03-25T04:17:58.793Z,18.81
2019-03-25T04:18:55.491Z,18.81
2019-03-25T04:19:52.200Z,18.81
2019-03-25T04:20:48.934Z,18.81
2019-03-25T04:21:45.642Z,18.81
2019-03-25T04:22:42.353Z,18.81
2019-03-25T04:23:39.050Z,18.81
2019-03-25T04:24:35.744Z,18.81
2019-03-25T04:25:32.466Z,18.81
2019-03-25T04:26:29.678Z,18.81
2019-03-25T04:27:26.494Z,18.81
2019-03-25T04:28:23.193Z,18.81
2019-03-25T04:29:19.902Z,18.81
2019-03-25T04:30:16.601Z,18.81
2019-03-25T04:31:13.327Z,18.81
2019-03-25T04:32:10.022Z,18.81
2019-03-25T04:33:06.735Z,18.81
2019-03-25T04:34:03.449Z,18.81
2019-03-25T04:35:00.313Z,18.81
2019-03-25T04:35:56.944Z,18.81
2019-03-25T04:36:53.681Z,18.81
2019-03-25T04:37:50.390Z,18.81
2019-03-25T04:38:47.099Z,18.75
2019-03-25T04:39:43.786Z,18.75
2019-03-25T04:40:40.482Z,18.81
2019-03-25T04:41:37.220Z,18.75
2019-03-25T04:42:33.926Z,18.75
2019-03-25T04:43:30.632Z,18.81
2019-03-25T04:44:27.338Z,18.75
2019-03-25T04:45:24.029Z,18.75
2019-03-25T04:46:20.737Z,18.75
2019-03-25T04:47:17.465Z,18.75
2019-03-25T04:48:14.165Z,18.75
2019-03-25T04:49:10.887Z,18.75
2019-03-25T04:50:07.584Z,18.75
2019-03-25T04:51:04.300Z,18.75
2019-03-25T04:52:00.994Z,18.75
2019-03-25T04:52:57.724Z,18.75
2019-03-25T04:53:54.420Z,18.75
2019-03-25T04:54:51.124Z,18.75
2019-03-25T04:55:47.828Z,18.75
2019-03-25T04:56:44.533Z,18.75
2019-03-25T04:57:41.238Z,18.75
2019-03-25T04:58:37.941Z,18.75
2019-03-25T04:59:34.640Z,18.75
2019-03-25T05:00:31.347Z,18.75
2019-03-25T05:01:28.032Z,18.75
2019-03-25T05:02:24.744Z,18.75
2019-03-25T05:03:21.466Z,18.75
2019-03-25T05:04:18.164Z,18.75
2019-03-25T05:05:14.873Z,18.75
2019-03-25T05:06:11.575Z,18.75
2019-03-25T05:07:08.269Z,18.75
2019-03-25T05:08:04.968Z,18.75
2019-03-25T05:09:01.708Z,18.75
2019-03-25T05:09:58.409Z,18.75
2019-03-25T05:10:55.108Z,18.75
2019-03-25T05:11:51.800Z,18.75
2019-03-25T05:12:48.508Z,18.75
2019-03-25T05:13:45.233Z,18.75
2019-03-25T05:14:41.933Z,18.75
2019-03-25T05:15:38.636Z,18.75
2019-03-25T05:16:35.349Z,18.75
2019-03-25T05:17:32.049Z,18.75
2019-03-25T05:18:28.750Z,18.75
2019-03-25T05:19:25.459Z,18.75
2019-03-25T05:20:22.169Z,18.75
2019-03-25T05:21:18.871Z,18.75
2019-03-25T05:22:15.527Z,18.75
2019-03-25T05:23:12.177Z,18.75
2019-03-25T05:24:08.911Z,18.75
2019-03-25T05:25:05.603Z,18.75
2019-03-25T05:26:02.310Z,18.75
2019-03-25T05:26:59.019Z,18.75
2019-03-25T05:27:55.756Z,18.69
2019-03-25T05:28:52.456Z,18.75
2019-03-25T05:29:49.184Z,18.69
2019-03-25T05:30:45.886Z,18.75
2019-03-25T05:31:42.581Z,18.75
2019-03-25T05:32:39.288Z,18.69
2019-03-25T05:33:35.988Z,18.69
2019-03-25T05:34:32.685Z,18.69
2019-03-25T05:35:29.401Z,18.69
2019-03-25T05:36:26.017Z,18.69
2019-03-25T05:37:22.716Z,18.69
2019-03-25T05:38:19.426Z,18.69
2019-03-25T05:39:16.128Z,18.69
2019-03-25T05:40:12.829Z,18.69
2019-03-25T05:41:09.552Z,18.69
2019-03-25T05:42:06.258Z,18.69
2019-03-25T05:43:02.970Z,18.69
2019-03-25T05:43:59.668Z,18.69
2019-03-25T05:44:56.375Z,18.69
2019-03-25T05:45:53.101Z,18.69
2019-03-25T05:46:49.800Z,18.69
2019-03-25T05:47:46.501Z,18.69
2019-03-25T05:48:43.201Z,18.69
2019-03-25T05:49:39.908Z,18.69
2019-03-25T05:50:36.605Z,18.69
2019-03-25T05:51:33.334Z,18.69
2019-03-25T05:52:30.032Z,18.69
2019-03-25T05:53:26.732Z,18.69
2019-03-25T05:54:23.436Z,18.69
2019-03-25T05:55:20.150Z,18.69
2019-03-25T05:56:16.840Z,18.69
2019-03-25T05:57:13.577Z,18.69
2019-03-25T05:58:10.282Z,18.69
2019-03-25T05:59:06.972Z,18.69
2019-03-25T06:00:03.585Z,18.69
2019-03-25T06:01:00.284Z,18.69
2019-03-25T06:01:57.009Z,18.69
2019-03-25T06:02:53.718Z,18.69
2019-03-25T06:03:50.416Z,18.69
2019-03-25T06:04:47.122Z,18.69
2019-03-25T06:05:43.817Z,18.69
2019-03-25T06:06:40.558Z,18.69
2019-03-25T06:07:37.265Z,18.69
2019-03-25T06:08:33.970Z,18.69
2019-03-25T06:09:30.674Z,18.69
2019-03-25T06:10:27.372Z,18.69
2019-03-25T06:11:24.068Z,18.69
2019-03-25T06:12:20.783Z,18.69
2019-03-25T06:13:17.497Z,18.69
2019-03-25T06:14:14.192Z,18.69
2019-03-25T06:15:10.893Z,18.69
2019-03-25T06:16:07.605Z,18.69
2019-03-25T06:17:04.324Z,18.69
2019-03-25T06:18:00.938Z,18.69
2019-03-25T06:18:57.640Z,18.69
2019-03-25T06:19:54.349Z,18.69
2019-03-25T06:20:51.057Z,18.69
2019-03-25T06:21:47.752Z,18.69
2019-03-25T06:22:44.462Z,18.69
2019-03-25T06:23:41.169Z,18.69
2019-03-25T06:24:37.881Z,18.69
2019-03-25T06:25:34.600Z,18.69
2019-03-25T06:26:31.281Z,18.69
2019-03-25T06:27:28.042Z,18.69
2019-03-25T06:28:24.718Z,18.69
2019-03-25T06:29:21.433Z,18.69
2019-03-25T06:30:18.129Z,18.69
2019-03-25T06:31:14.831Z,18.69
2019-03-25T06:32:11.522Z,18.69
2019-03-25T06:33:12.670Z,18.69
2019-03-25T06:34:06.762Z,18.62
2019-03-25T06:35:03.469Z,18.69
2019-03-25T06:36:00.161Z,18.69
2019-03-25T06:36:56.880Z,18.69
2019-03-25T06:37:53.572Z,18.62
2019-03-25T06:38:50.306Z,18.69
2019-03-25T06:39:46.996Z,18.62
2019-03-25T06:40:43.697Z,18.62
2019-03-25T06:41:40.398Z,18.69
2019-03-25T06:42:37.119Z,18.62
2019-03-25T06:43:33.833Z,18.62
2019-03-25T06:44:30.541Z,18.62
2019-03-25T06:45:27.240Z,18.62
2019-03-25T06:46:23.950Z,18.62
2019-03-25T06:47:20.653Z,18.62
2019-03-25T06:48:17.343Z,18.69
2019-03-25T06:49:14.073Z,18.62
2019-03-25T06:50:10.779Z,18.62
2019-03-25T06:51:07.481Z,18.62
2019-03-25T06:52:04.189Z,18.62
2019-03-25T06:53:00.913Z,18.62
2019-03-25T06:53:57.640Z,18.62
2019-03-25T06:54:54.348Z,18.62
2019-03-25T06:55:51.052Z,18.62
2019-03-25T06:56:47.741Z,18.62
2019-03-25T06:57:44.454Z,18.62
2019-03-25T06:58:41.157Z,18.62
2019-03-25T06:59:37.852Z,18.62
2019-03-25T07:00:34.558Z,18.62
2019-03-25T07:01:31.267Z,18.00
2019-03-25T07:02:27.980Z,17.50
2019-03-25T07:03:24.668Z,17.50
2019-03-25T07:04:21.400Z,17.81
2019-03-25T07:05:18.109Z,19.00
2019-03-25T07:06:14.820Z,21.06
2019-03-25T07:07:11.526Z,23.62
2019-03-25T07:08:08.230Z,26.06
2019-03-25T07:09:04.935Z,28.06
2019-03-25T07:10:01.681Z,29.56
2019-03-25T07:10:58.372Z,30.69
2019-03-25T07:11:55.068Z,31.50
2019-03-25T07:12:51.774Z,32.06
2019-03-25T07:13:48.478Z,32.44
2019-03-25T07:14:45.168Z,32.81
2019-03-25T07:15:44.048Z,33.06
2019-03-25T07:16:40.412Z,33.31
2019-03-25T07:17:37.124Z,33.56
2019-03-25T07:18:33.824Z,33.81
2019-03-25T07:19:30.529Z,34.06
2019-03-25T07:20:27.249Z,34.38
2019-03-25T07:21:23.969Z,34.63
2019-03-25T07:22:20.689Z,34.88
2019-03-25T07:23:17.389Z,35.13
2019-03-25T07:24:14.089Z,35.38
2019-03-25T07:25:10.797Z,35.63
2019-03-25T07:26:07.521Z,35.81
2019-03-25T07:27:04.240Z,36.06
2019-03-25T07:28:00.936Z,36.31
2019-03-25T07:28:57.620Z,36.56
2019-03-25T07:29:54.229Z,36.81
2019-03-25T07:30:50.961Z,37.00
2019-03-25T07:31:47.665Z,37.19
2019-03-25T07:32:44.365Z,37.38
2019-03-25T07:33:41.069Z,37.63
2019-03-25T07:34:37.777Z,37.81
2019-03-25T07:35:34.506Z,37.94
2019-03-25T07:36:31.214Z,37.81
2019-03-25T07:37:27.913Z,37.50
2019-03-25T07:38:24.604Z,37.25
2019-03-25T07:39:21.314Z,37.06
2019-03-25T07:40:18.013Z,36.88
2019-03-25T07:41:17.047Z,36.69
2019-03-25T07:42:13.257Z,36.56
2019-03-25T07:43:09.957Z,36.44
2019-03-25T07:44:08.705Z,36.31
2019-03-25T07:45:05.177Z,36.06
2019-03-25T07:46:01.914Z,35.69
2019-03-25T07:46:58.612Z,35.00
2019-03-25T07:47:55.315Z,34.00
2019-03-25T07:48:52.012Z,32.75
2019-03-25T07:49:48.733Z,31.44
2019-03-25T07:50:45.436Z,30.37
2019-03-25T07:51:42.075Z,30.31
2019-03-25T07:52:38.793Z,31.31
2019-03-25T07:53:35.497Z,32.94
2019-03-25T07:54:32.200Z,34.50
2019-03-25T07:55:28.906Z,36.00
2019-03-25T07:56:25.636Z,37.00
2019-03-25T07:57:22.360Z,37.38
2019-03-25T07:58:19.045Z,37.25
2019-03-25T07:59:17.500Z,37.13
2019-03-25T08:00:14.409Z,36.88
2019-03-25T08:01:11.191Z,36.69
2019-03-25T08:02:07.988Z,36.44
2019-03-25T08:03:04.635Z,36.25
2019-03-25T08:04:01.333Z,35.88
2019-03-25T08:04:58.037Z,35.38
2019-03-25T08:05:54.749Z,34.63
2019-03-25T08:06:51.493Z,33.63
2019-03-25T08:07:48.222Z,32.50
2019-03-25T08:08:44.893Z,31.25
2019-03-25T08:09:41.592Z,30.19
2019-03-25T08:10:38.327Z,29.94
2019-03-25T08:11:35.035Z,30.81
2019-03-25T08:12:31.735Z,32.44
2019-03-25T08:13:28.448Z,34.19
2019-03-25T08:14:25.156Z,35.69
2019-03-25T08:15:21.853Z,36.50
2019-03-25T08:16:18.563Z,36.69
2019-03-25T08:17:15.278Z,36.63
2019-03-25T08:18:11.985Z,36.50
2019-03-25T08:19:08.677Z,36.31
2019-03-25T08:20:05.385Z,36.06
2019-03-25T08:21:02.089Z,35.81
2019-03-25T08:21:58.798Z,35.38
2019-03-25T08:22:55.520Z,34.88
2019-03-25T08:23:52.228Z,34.13
2019-03-25T08:24:48.928Z,33.19
2019-03-25T08:25:45.634Z,32.19
2019-03-25T08:26:42.960Z,31.00
2019-03-25T08:27:39.841Z,30.06
2019-03-25T08:28:36.566Z,29.75
2019-03-25T08:29:33.277Z,30.56
2019-03-25T08:30:29.976Z,32.13
2019-03-25T08:31:26.673Z,33.88
2019-03-25T08:32:23.372Z,35.38
2019-03-25T08:33:20.107Z,36.19
2019-03-25T08:34:16.800Z,36.44
2019-03-25T08:35:13.513Z,36.38
2019-03-25T08:36:10.238Z,36.25
2019-03-25T08:37:06.942Z,36.00
2019-03-25T08:38:03.657Z,35.75
2019-03-25T08:39:00.381Z,35.38
2019-03-25T08:39:57.088Z,34.88
2019-03-25T08:40:53.798Z,34.25
2019-03-25T08:41:50.493Z,33.38
2019-03-25T08:42:47.201Z,32.44
2019-03-25T08:43:43.920Z,31.37
2019-03-25T08:44:40.640Z,30.37
2019-03-25T08:45:37.349Z,29.75
2019-03-25T08:46:34.055Z,30.12
2019-03-25T08:47:30.749Z,31.50
2019-03-25T08:48:27.464Z,33.25
2019-03-25T08:49:24.177Z,34.88
2019-03-25T08:50:20.905Z,36.00
2019-03-25T08:51:17.605Z,36.50
2019-03-25T08:52:14.304Z,36.50
2019-03-25T08:53:11.021Z,36.44
2019-03-25T08:54:07.725Z,36.25
2019-03-25T08:55:04.433Z,36.00
2019-03-25T08:56:01.164Z,35.69
2019-03-25T08:56:57.873Z,35.19
2019-03-25T08:57:54.588Z,34.56
2019-03-25T08:58:51.286Z,33.75
2019-03-25T08:59:47.985Z,32.88
2019-03-25T09:00:44.704Z,31.87
2019-03-25T09:01:41.397Z,30.81
2019-03-25T09:02:38.113Z,30.00
2019-03-25T09:03:34.813Z,30.00
2019-03-25T09:04:31.513Z,31.06
2019-03-25T09:05:28.212Z,32.63
2019-03-25T09:06:24.845Z,34.25
2019-03-25T09:07:21.540Z,35.63
2019-03-25T09:08:18.140Z,36.31
2019-03-25T09:09:14.841Z,36.50
2019-03-25T09:10:11.543Z,36.38
2019-03-25T09:11:08.240Z,36.25
2019-03-25T09:12:04.965Z,35.94
2019-03-25T09:13:01.673Z,35.56
2019-03-25T09:13:58.369Z,35.13
2019-03-25T09:14:55.072Z,34.50
2019-03-25T09:15:51.773Z,33.69
2019-03-25T09:16:48.491Z,32.81
2019-03-25T09:17:45.213Z,31.81
2019-03-25T09:18:41.917Z,30.75
2019-03-25T09:19:38.612Z,30.00
2019-03-25T09:20:35.320Z,30.06
2019-03-25T09:21:32.005Z,31.12
2019-03-25T09:22:28.640Z,32.69
2019-03-25T09:23:25.341Z,34.31
2019-03-25T09:24:22.045Z,35.63
2019-03-25T09:25:18.748Z,36.25
2019-03-25T09:26:15.457Z,36.38
2019-03-25T09:27:12.157Z,36.25
2019-03-25T09:28:08.813Z,36.06
2019-03-25T09:29:05.524Z,35.75
2019-03-25T09:30:03.656Z,35.31
2019-03-25T09:31:00.438Z,34.81
2019-03-25T09:31:57.133Z,34.13
2019-03-25T09:32:53.832Z,33.31
2019-03-25T09:33:50.578Z,32.44
2019-03-25T09:34:47.287Z,31.50
2019-03-25T09:35:44.025Z,30.62
2019-03-25T09:36:40.701Z,29.94
2019-03-25T09:37:37.411Z,30.06
2019-03-25T09:38:34.097Z,31.12
2019-03-25T09:39:30.825Z,32.69
2019-03-25T09:40:27.524Z,34.25
2019-03-25T09:41:24.234Z,35.50
2019-03-25T09:42:20.940Z,36.06
2019-03-25T09:43:17.645Z,36.13
2019-03-25T09:44:14.381Z,36.00
2019-03-25T09:45:11.085Z,35.69
2019-03-25T09:46:07.785Z,35.31
2019-03-25T09:47:04.482Z,34.81
2019-03-25T09:48:01.179Z,34.19
2019-03-25T09:48:57.893Z,33.50
2019-03-25T09:49:54.590Z,32.69
2019-03-25T09:50:51.292Z,31.81
2019-03-25T09:51:48.000Z,30.94
2019-03-25T09:52:44.709Z,30.12
2019-03-25T09:53:41.416Z,29.69
2019-03-25T09:54:38.146Z,30.12
2019-03-25T09:55:34.842Z,31.37
2019-03-25T09:56:31.546Z,32.88
2019-03-25T09:57:28.237Z,34.38
2019-03-25T09:58:35.587Z,35.44
2019-03-25T09:59:23.470Z,35.81
2019-03-25T10:00:20.196Z,35.75
2019-03-25T10:01:16.910Z,35.38
2019-03-25T10:02:13.617Z,34.81
2019-03-25T10:03:10.319Z,34.13
2019-03-25T10:04:07.017Z,33.38
2019-03-25T10:05:03.724Z,32.50
2019-03-25T10:06:00.457Z,31.62
2019-03-25T10:06:57.156Z,30.88
2019-03-25T10:07:53.869Z,30.19
2019-03-25T10:08:50.577Z,29.69
2019-03-25T10:09:47.290Z,29.25
2019-03-25T10:10:43.988Z,28.87
2019-03-25T10:11:40.702Z,28.50
2019-03-25T10:12:37.396Z,28.12
2019-03-25T10:13:34.100Z,27.81
2019-03-25T10:14:30.809Z,27.56
2019-03-25T10:15:27.509Z,27.31
2019-03-25T10:16:24.254Z,27.13
2019-03-25T10:17:20.948Z,27.00
2019-03-25T10:37:13.893Z,25.25
2019-03-25T10:38:19.163Z,25.19
2019-03-25T10:39:09.124Z,25.12
2019-03-25T10:40:05.830Z,25.12
2019-03-25T10:41:02.600Z,25.06
2019-03-25T10:41:59.307Z,25.00
2019-03-25T10:42:56.012Z,24.94
2019-03-25T10:43:52.709Z,24.87
2019-03-25T10:44:49.419Z,24.81
2019-03-25T10:45:46.124Z,24.75
2019-03-25T10:46:42.816Z,24.75
2019-03-25T10:47:39.521Z,24.69
2019-03-25T10:48:36.225Z,24.63
2019-03-25T10:49:32.937Z,24.56
2019-03-25T10:50:29.661Z,24.50
2019-03-25T10:51:26.376Z,24.50
2019-03-25T10:52:23.085Z,24.44
2019-03-25T10:53:19.785Z,24.37
2019-03-25T10:54:16.485Z,24.31
2019-03-25T10:55:13.214Z,24.31
2019-03-25T10:56:09.928Z,24.25
2019-03-25T10:57:06.630Z,24.19
2019-03-25T10:58:03.329Z,24.19
2019-03-25T10:59:00.030Z,24.12
2019-03-25T10:59:56.730Z,24.06
2019-03-25T11:00:53.449Z,24.00
2019-03-25T11:01:50.161Z,24.00
2019-03-25T11:02:46.864Z,23.94
2019-03-25T11:03:43.569Z,23.87
2019-03-25T11:04:40.265Z,23.81
2019-03-25T11:05:36.974Z,23.81
2019-03-25T11:06:33.698Z,23.81
2019-03-25T11:07:30.427Z,23.75
2019-03-25T11:08:27.110Z,23.69
2019-03-25T11:09:23.819Z,23.69
2019-03-25T11:10:20.526Z,23.62
2019-03-25T11:11:17.212Z,23.56
2019-03-25T11:12:13.918Z,23.56
2019-03-25T11:13:10.612Z,23.50
2019-03-25T11:14:07.316Z,23.50
2019-03-25T11:15:04.026Z,23.44
2019-03-25T11:16:00.733Z,23.38
2019-03-25T11:16:57.456Z,23.38
2019-03-25T11:17:54.167Z,23.31
2019-03-25T11:18:50.869Z,23.31
2019-03-25T11:19:47.581Z,23.25
2019-03-25T11:20:44.277Z,23.25
2019-03-25T11:21:40.993Z,23.19
2019-03-25T11:22:37.728Z,23.19
2019-03-25T11:23:34.437Z,23.12
2019-03-25T11:24:31.145Z,23.06
2019-03-25T11:25:27.853Z,23.06
2019-03-25T11:26:24.553Z,23.06
2019-03-25T11:27:21.280Z,23.00
2019-03-25T11:28:17.981Z,23.00
2019-03-25T11:29:14.690Z,22.94
2019-03-25T11:30:11.397Z,22.94
2019-03-25T11:31:08.101Z,22.87
2019-03-25T11:32:04.792Z,22.87
2019-03-25T11:33:01.528Z,22.81
2019-03-25T11:33:58.238Z,22.75
2019-03-25T11:34:57.765Z,22.75
2019-03-25T11:35:54.465Z,22.69
2019-03-25T11:36:51.069Z,22.69
2019-03-25T11:37:47.775Z,22.62
2019-03-25T11:38:44.509Z,22.62
2019-03-25T11:39:41.204Z,22.56
2019-03-25T11:40:37.909Z,22.56
2019-03-25T11:41:34.622Z,22.56
2019-03-25T11:42:31.332Z,22.50
2019-03-25T11:43:28.053Z,22.50
2019-03-25T11:44:24.749Z,22.44
2019-03-25T11:45:21.453Z,22.44
2019-03-25T11:46:18.156Z,22.37
2019-03-25T11:47:14.857Z,22.37
2019-03-25T11:48:11.560Z,22.37
2019-03-25T11:49:08.297Z,22.31
2019-03-25T11:50:04.997Z,22.31
2019-03-25T11:51:01.703Z,22.25
2019-03-25T11:51:58.396Z,22.25
2019-03-25T11:52:55.089Z,22.19
2019-03-25T11:53:51.802Z,22.19
2019-03-25T11:54:48.509Z,22.19
2019-03-25T11:55:45.211Z,22.13
2019-03-25T11:56:41.923Z,22.13
2019-03-25T11:57:38.622Z,22.13
2019-03-25T11:58:35.321Z,22.13
2019-03-25T11:59:32.051Z,22.06
2019-03-25T12:00:28.754Z,22.06
2019-03-25T12:01:25.472Z,22.25
2019-03-25T12:02:22.165Z,22.94
2019-03-25T12:03:18.866Z,23.38
2019-03-25T12:04:15.564Z,24.06
2019-03-25T12:05:12.299Z,24.94
2019-03-25T12:06:09.001Z,26.50
2019-03-25T12:07:05.696Z,28.56
2019-03-25T12:08:02.401Z,30.56
2019-03-25T12:08:59.099Z,32.31
2019-03-25T12:09:55.809Z,33.63
2019-03-25T12:10:52.512Z,34.75
2019-03-25T12:11:49.208Z,35.56
2019-03-25T12:12:45.918Z,36.25
2019-03-25T12:13:42.631Z,36.75
2019-03-25T12:14:39.375Z,37.13
2019-03-25T12:15:36.077Z,37.19
2019-03-25T12:16:32.782Z,36.88
2019-03-25T12:17:29.481Z,36.56
2019-03-25T12:18:26.188Z,36.25
2019-03-25T12:19:22.888Z,36.00
2019-03-25T12:20:19.620Z,35.81
2019-03-25T12:21:16.333Z,35.56
2019-03-25T12:22:13.038Z,35.19
2019-03-25T12:23:09.733Z,34.69
2019-03-25T12:24:06.433Z,34.06
2019-03-25T12:25:03.134Z,33.25
2019-03-25T12:25:59.857Z,32.25
2019-03-25T12:26:56.557Z,31.25
2019-03-25T12:27:53.270Z,30.19
2019-03-25T12:28:49.992Z,29.44
2019-03-25T12:29:46.683Z,29.63